Time;durP1;ratioP1;P1;durP2;ratioP2;P2;SDS_P1;SDS_P2;PMS_P1;PMS_P2;Temp;Humidity;BMP_temperature;BMP_pressure;BME280_temperature;BME280_humidity;BME280_pressure;Samples;Min_cycle;Max_cycle;Signal;HPM_P1;HPM_P2
2023/07/14 00:01:22;;;;;;;2.17;1.98;;;;;;;;;;7307146;19;140648;-74
2023/07/14 00:03:49;;;;;;;3.15;2.15;;;;;;;;;;7305880;19;142018;-74
2023/07/14 00:06:17;;;;;;;2.20;2.00;;;;;;;;;;7307066;19;142572;-74
2023/07/14 00:08:45;;;;;;;2.10;2.00;;;;;;;;;;7306710;19;140779;-74
2023/07/14 00:11:16;;;;;;;2.47;2.13;;;;;;;;;;7306494;19;140508;-74
2023/07/14 00:13:44;;;;;;;2.67;2.10;;;;;;;;;;7306166;19;141904;-74
2023/07/14 00:16:18;;;;;;;3.47;2.20;;;;;;;;;;7305971;19;142053;-74
2023/07/14 00:18:46;;;;;;;2.30;2.08;;;;;;;;;;7306472;19;140654;-74
2023/07/14 00:21:22;;;;;;;3.03;2.15;;;;;;;;;;7304564;19;140445;-74
2023/07/14 00:23:50;;;;;;;2.67;2.20;;;;;;;;;;7305254;19;142492;-76
2023/07/14 00:26:19;;;;;;;2.50;1.90;;;;;;;;;;7306020;19;141047;-76
2023/07/14 00:28:48;;;;;;;1.98;1.88;;;;;;;;;;7304391;19;140559;-76
2023/07/14 00:31:16;;;;;;;2.10;1.88;;;;;;;;;;7304336;19;140586;-76
2023/07/14 00:33:47;;;;;;;2.95;2.08;;;;;;;;;;7305443;19;140928;-76
2023/07/14 00:36:14;;;;;;;;;;;;;;;;;;7306630;19;142749;-76
2023/07/14 00:38:41;;;;;;;2.35;1.90;;;;;;;;;;7306117;19;141446;-76
2023/07/14 00:41:18;;;;;;;2.53;1.98;;;;;;;;;;7305263;19;140863;-75
2023/07/14 00:43:46;;;;;;;2.33;1.77;;;;;;;;;;7304756;19;141022;-76
2023/07/14 00:46:24;;;;;;;1.77;1.67;;;;;;;;;;7304836;19;141860;-74
2023/07/14 00:48:53;;;;;;;3.22;1.70;;;;;;;;;;7305233;19;140543;-75
2023/07/14 00:51:22;;;;;;;2.05;1.95;;;;;;;;;;7304955;19;140660;-76
2023/07/14 00:53:49;;;;;;;2.65;2.30;;;;;;;;;;7305967;19;140531;-76
2023/07/14 00:56:35;;;;;;;2.20;2.00;;;;;;;;;;7305283;19;140621;-75
2023/07/14 00:59:04;;;;;;;2.10;1.90;;;;;;;;;;7302685;19;140665;-75
2023/07/14 01:01:32;;;;;;;2.03;1.70;;;;;;;;;;7306107;19;140659;-74
2023/07/14 01:04:00;;;;;;;2.03;1.88;;;;;;;;;;7305702;19;140565;-74
2023/07/14 01:06:31;;;;;;;2.33;1.83;;;;;;;;;;7304053;19;142290;-74
2023/07/14 01:09:04;;;;;;;1.73;1.60;;;;;;;;;;7305109;19;140636;-74
2023/07/14 01:11:33;;;;;;;2.42;1.73;;;;;;;;;;7304482;19;140598;-74
2023/07/14 01:14:02;;;;;;;1.92;1.70;;;;;;;;;;7302712;19;142012;-75
2023/07/14 01:16:30;;;;;;;2.75;1.60;;;;;;;;;;7303178;19;142195;-75
2023/07/14 01:18:58;;;;;;;2.15;1.85;;;;;;;;;;7304116;19;141716;-75
2023/07/14 01:21:25;;;;;;;2.03;1.75;;;;;;;;;;7304413;19;140432;-75
2023/07/14 01:24:09;;;;;;;3.13;1.65;;;;;;;;;;7304296;19;141592;-75
2023/07/14 01:26:56;;;;;;;3.28;2.00;;;;;;;;;;7303696;19;141519;-75
2023/07/14 01:29:23;;;;;;;2.00;1.80;;;;;;;;;;7303450;19;140647;-75
2023/07/14 01:31:51;;;;;;;1.80;1.67;;;;;;;;;;7303494;19;140866;-75
2023/07/14 01:34:18;;;;;;;2.35;1.58;;;;;;;;;;7303186;19;140724;-75
2023/07/14 01:36:48;;;;;;;1.83;1.67;;;;;;;;;;7303582;19;142574;-76
2023/07/14 01:39:15;;;;;;;1.75;1.65;;;;;;;;;;7304580;19;140642;-76
2023/07/14 01:41:42;;;;;;;2.35;1.80;;;;;;;;;;7303512;19;140801;-75
2023/07/14 01:44:18;;;;;;;2.13;1.88;;;;;;;;;;7301435;19;141724;-76
2023/07/14 01:46:46;;;;;;;1.90;1.80;;;;;;;;;;7302814;19;141935;-75
2023/07/14 01:49:19;;;;;;;1.65;1.55;;;;;;;;;;7303594;19;140468;-76
2023/07/14 01:51:48;;;;;;;1.50;1.40;;;;;;;;;;7303127;19;140680;-75
2023/07/14 01:54:26;;;;;;;2.42;1.80;;;;;;;;;;7302786;19;141962;-76
2023/07/14 01:56:56;;;;;;;1.70;1.60;;;;;;;;;;7303366;19;142813;-75
2023/07/14 01:59:29;;;;;;;1.60;1.50;;;;;;;;;;7301283;19;140550;-76
2023/07/14 02:01:59;;;;;;;2.20;1.42;;;;;;;;;;7302753;19;140615;-76
2023/07/14 02:04:28;;;;;;;1.63;1.53;;;;;;;;;;7303149;19;141459;-75
2023/07/14 02:07:01;;;;;;;1.60;1.50;;;;;;;;;;7302812;19;140730;-76
2023/07/14 02:09:29;;;;;;;1.98;1.40;;;;;;;;;;7302671;19;141056;-76
2023/07/14 02:11:58;;;;;;;1.92;1.67;;;;;;;;;;7303288;19;140486;-75
2023/07/14 02:14:31;;;;;;;1.63;1.52;;;;;;;;;;7302215;19;140711;-76
2023/07/14 02:17:05;;;;;;;1.60;1.50;;;;;;;;;;7302162;19;141999;-77
2023/07/14 02:19:33;;;;;;;1.80;1.55;;;;;;;;;;7302479;19;140559;-76
2023/07/14 02:22:02;;;;;;;1.70;1.60;;;;;;;;;;7302362;19;140478;-76
2023/07/14 02:24:30;;;;;;;5.13;1.45;;;;;;;;;;7302311;19;141092;-76
2023/07/14 02:27:02;;;;;;;1.70;1.60;;;;;;;;;;7302080;19;141537;-77
2023/07/14 02:29:30;;;;;;;1.33;1.27;;;;;;;;;;7299913;19;140555;-76
2023/07/14 02:31:57;;;;;;;1.63;1.40;;;;;;;;;;7302649;19;140430;-76
2023/07/14 02:34:28;;;;;;;2.25;1.50;;;;;;;;;;7302771;19;141777;-76
2023/07/14 02:36:57;;;;;;;1.60;1.42;;;;;;;;;;7302302;19;142040;-75
2023/07/14 02:39:24;;;;;;;1.40;1.30;;;;;;;;;;7301720;19;140584;-76
2023/07/14 02:41:55;;;;;;;1.73;1.50;;;;;;;;;;7301397;19;140486;-74
2023/07/14 02:44:26;;;;;;;1.83;1.38;;;;;;;;;;7300611;19;142663;-76
2023/07/14 02:46:56;;;;;;;2.00;1.35;;;;;;;;;;7301563;19;141970;-75
2023/07/14 02:49:23;;;;;;;4.17;1.50;;;;;;;;;;7301782;19;140770;-75
2023/07/14 02:51:50;;;;;;;1.75;1.63;;;;;;;;;;7301974;19;140990;-76
2023/07/14 02:54:17;;;;;;;1.45;1.35;;;;;;;;;;7300689;19;141273;-75
2023/07/14 02:56:44;;;;;;;1.40;1.30;;;;;;;;;;7301510;19;140790;-75
2023/07/14 02:59:13;;;;;;;3.28;1.52;;;;;;;;;;7301003;19;140660;-76
2023/07/14 03:01:40;;;;;;;1.90;1.40;;;;;;;;;;7301767;19;140429;-75
2023/07/14 03:04:09;;;;;;;1.30;1.20;;;;;;;;;;7300780;19;141045;-75
2023/07/14 03:06:36;;;;;;;1.88;1.30;;;;;;;;;;7301371;19;142503;-75
2023/07/14 03:09:03;;;;;;;1.30;1.20;;;;;;;;;;7301567;19;140523;-76
2023/07/14 03:11:30;;;;;;;1.60;1.30;;;;;;;;;;7301137;19;140845;-75
2023/07/14 03:13:57;;;;;;;1.60;1.40;;;;;;;;;;7300139;19;141137;-75
2023/07/14 03:16:25;;;;;;;1.55;1.45;;;;;;;;;;7301085;19;141274;-76
2023/07/14 03:18:53;;;;;;;1.42;1.30;;;;;;;;;;7299767;19;140522;-77
2023/07/14 03:21:20;;;;;;;1.30;1.20;;;;;;;;;;7301759;19;140821;-76
2023/07/14 03:23:47;;;;;;;1.50;1.40;;;;;;;;;;7301830;19;141331;-76
2023/07/14 03:26:14;;;;;;;1.10;1.10;;;;;;;;;;7299319;19;142163;-76
2023/07/14 03:28:41;;;;;;;1.58;1.20;;;;;;;;;;7300042;19;140462;-76
2023/07/14 03:31:08;;;;;;;1.45;1.35;;;;;;;;;;7301254;19;140809;-76
2023/07/14 03:33:36;;;;;;;1.30;1.20;;;;;;;;;;7301753;19;140474;-76
2023/07/14 03:36:04;;;;;;;1.27;1.17;;;;;;;;;;7300581;19;143081;-76
2023/07/14 03:38:31;;;;;;;1.30;1.20;;;;;;;;;;7304328;19;140575;-76
2023/07/14 03:40:58;;;;;;;1.15;1.10;;;;;;;;;;7307990;19;141249;-76
2023/07/14 03:43:25;;;;;;;1.95;1.55;;;;;;;;;;7307227;19;141347;-75
2023/07/14 03:45:52;;;;;;;1.08;1.08;;;;;;;;;;7306751;19;143118;-75
2023/07/14 03:48:19;;;;;;;1.20;1.20;;;;;;;;;;7307905;19;140638;-75
2023/07/14 03:50:47;;;;;;;1.10;1.10;;;;;;;;;;7307487;19;140509;-75
2023/07/14 03:53:14;;;;;;;1.08;1.08;;;;;;;;;;7306757;19;141944;-76
2023/07/14 03:55:41;;;;;;;1.20;1.15;;;;;;;;;;7307131;19;142008;-76
2023/07/14 03:58:08;;;;;;;1.40;1.20;;;;;;;;;;7305577;19;140626;-76
2023/07/14 04:00:35;;;;;;;1.58;1.20;;;;;;;;;;7306285;19;140406;-76
2023/07/14 04:03:02;;;;;;;3.03;1.10;;;;;;;;;;7306820;19;141148;-75
2023/07/14 04:05:30;;;;;;;1.10;1.00;;;;;;;;;;7307314;19;140700;-76
2023/07/14 04:07:57;;;;;;;1.38;1.10;;;;;;;;;;7305872;19;140580;-76
2023/07/14 04:10:24;;;;;;;2.13;1.08;;;;;;;;;;7307442;19;140580;-75
2023/07/14 04:12:51;;;;;;;1.23;1.17;;;;;;;;;;7306587;19;140850;-76
2023/07/14 04:15:19;;;;;;;1.30;1.20;;;;;;;;;;7305985;19;141988;-76
2023/07/14 04:17:46;;;;;;;1.17;1.10;;;;;;;;;;7309285;19;140628;-75
2023/07/14 04:20:13;;;;;;;2.38;1.38;;;;;;;;;;7307113;19;140940;-75
2023/07/14 04:22:41;;;;;;;1.35;1.17;;;;;;;;;;7305296;19;141859;-75
2023/07/14 04:25:09;;;;;;;0.85;0.85;;;;;;;;;;7305250;19;140775;-75
2023/07/14 04:27:37;;;;;;;1.38;1.10;;;;;;;;;;7304618;19;140730;-76
2023/07/14 04:30:04;;;;;;;1.67;1.05;;;;;;;;;;7305077;19;140650;-76
2023/07/14 04:32:31;;;;;;;1.63;1.05;;;;;;;;;;7305709;19;141168;-76
2023/07/14 04:34:58;;;;;;;1.27;1.20;;;;;;;;;;7306155;19;142479;-78
2023/07/14 04:37:26;;;;;;;1.25;1.15;;;;;;;;;;7305690;19;140903;-79
2023/07/14 04:39:53;;;;;;;1.10;1.10;;;;;;;;;;7306052;19;140692;-81
2023/07/14 04:42:20;;;;;;;1.20;1.10;;;;;;;;;;7305607;19;141242;-79
2023/07/14 04:44:47;;;;;;;1.23;1.10;;;;;;;;;;7305215;19;141310;-79
2023/07/14 04:47:15;;;;;;;1.85;1.27;;;;;;;;;;7305322;19;140677;-79
2023/07/14 04:49:42;;;;;;;1.58;1.00;;;;;;;;;;7305418;19;140609;-79
2023/07/14 04:52:09;;;;;;;1.63;1.20;;;;;;;;;;7304269;19;140550;-79
2023/07/14 04:54:36;;;;;;;1.23;1.13;;;;;;;;;;7305529;19;142318;-81
2023/07/14 04:57:03;;;;;;;1.45;1.20;;;;;;;;;;7305358;19;140510;-81
2023/07/14 04:59:32;;;;;;;1.92;1.35;;;;;;;;;;7303298;19;140653;-79
2023/07/14 05:03:12;;;;;;;2.13;1.42;;;;;;;;;;7341233;19;140562;-77
2023/07/14 05:05:40;;;;;;;1.27;1.17;;;;;;;;;;7336363;19;140480;-79
2023/07/14 05:08:08;;;;;;;1.15;1.00;;;;;;;;;;7336808;19;140896;-77
2023/07/14 05:10:38;;;;;;;1.85;1.00;;;;;;;;;;7337243;19;140858;-78
2023/07/14 05:13:06;;;;;;;1.67;1.13;;;;;;;;;;7337126;19;140764;-78
2023/07/14 05:15:33;;;;;;;2.67;1.20;;;;;;;;;;7336381;19;140672;-76
2023/07/14 05:18:00;;;;;;;1.15;1.05;;;;;;;;;;7334034;19;140782;-75
2023/07/14 05:20:29;;;;;;;2.28;1.20;;;;;;;;;;7336052;19;142807;-76
2023/07/14 05:22:56;;;;;;;1.13;1.00;;;;;;;;;;7336646;19;140448;-76
2023/07/14 05:25:23;;;;;;;1.42;1.10;;;;;;;;;;7336662;19;140938;-76
2023/07/14 05:27:50;;;;;;;1.13;1.00;;;;;;;;;;7336441;19;141030;-76
2023/07/14 05:30:20;;;;;;;2.50;1.23;;;;;;;;;;7335451;19;140723;-76
2023/07/14 05:32:48;;;;;;;0.90;0.90;;;;;;;;;;7335787;19;140719;-76
2023/07/14 05:35:16;;;;;;;1.23;1.13;;;;;;;;;;7336165;19;140674;-74
2023/07/14 05:37:43;;;;;;;1.20;1.00;;;;;;;;;;7334896;19;141396;-76
2023/07/14 05:40:11;;;;;;;1.13;0.98;;;;;;;;;;7335266;19;141736;-76
2023/07/14 05:42:39;;;;;;;1.17;1.10;;;;;;;;;;7334767;19;140781;-75
2023/07/14 05:45:07;;;;;;;0.85;0.85;;;;;;;;;;7334810;19;140507;-76
2023/07/14 05:47:35;;;;;;;1.67;1.15;;;;;;;;;;7333608;19;142055;-75
2023/07/14 05:50:03;;;;;;;1.45;0.85;;;;;;;;;;7335212;19;142790;-75
2023/07/14 05:52:30;;;;;;;1.00;1.00;;;;;;;;;;7334923;19;141013;-81
2023/07/14 05:55:03;;;;;;;5.65;1.52;;;;;;;;;;7334051;19;140584;-77
2023/07/14 05:57:31;;;;;;;1.48;1.20;;;;;;;;;;7335214;19;140892;-77
2023/07/14 05:59:58;;;;;;;1.30;1.20;;;;;;;;;;7333969;19;142719;-77
2023/07/14 06:02:25;;;;;;;2.80;1.13;;;;;;;;;;7334921;19;140851;-77
2023/07/14 06:04:53;;;;;;;1.38;1.27;;;;;;;;;;7335561;19;140675;-76
2023/07/14 06:07:20;;;;;;;3.08;1.50;;;;;;;;;;7333984;19;142149;-76
2023/07/14 06:09:47;;;;;;;4.10;1.27;;;;;;;;;;7333938;19;142185;-76
2023/07/14 06:12:14;;;;;;;2.78;1.25;;;;;;;;;;7333500;19;140530;-76
2023/07/14 06:14:42;;;;;;;1.25;1.15;;;;;;;;;;7303786;19;140351;-76
2023/07/14 06:17:10;;;;;;;1.67;1.20;;;;;;;;;;7304628;19;141274;-76
2023/07/14 06:19:38;;;;;;;1.70;1.10;;;;;;;;;;7305366;19;141884;-76
2023/07/14 06:22:06;;;;;;;1.50;1.20;;;;;;;;;;7305631;19;140601;-76
2023/07/14 06:24:36;;;;;;;1.75;1.10;;;;;;;;;;7305226;19;140798;-76
2023/07/14 06:27:05;;;;;;;;;;;;;;;;;;7305007;19;141240;-76
2023/07/14 06:29:34;;;;;;;1.00;1.00;;;;;;;;;;7303757;19;152453;-75
2023/07/14 06:32:01;;;;;;;1.33;1.10;;;;;;;;;;7304788;19;140528;-75
2023/07/14 06:34:28;;;;;;;1.00;1.00;;;;;;;;;;7304281;19;140704;-75
2023/07/14 06:36:55;;;;;;;1.92;1.17;;;;;;;;;;7304700;19;141908;-76
2023/07/14 06:39:23;;;;;;;0.98;0.98;;;;;;;;;;7304855;19;140703;-76
2023/07/14 06:41:50;;;;;;;1.05;1.05;;;;;;;;;;7302560;19;140800;-76
2023/07/14 06:44:17;;;;;;;2.22;1.25;;;;;;;;;;7305104;19;140596;-77
2023/07/14 06:46:52;;;;;;;1.00;1.00;;;;;;;;;;7304776;19;140884;-76
2023/07/14 06:49:19;;;;;;;1.10;1.00;;;;;;;;;;7304196;19;142682;-76
2023/07/14 06:51:51;;;;;;;0.90;0.90;;;;;;;;;;7304677;19;140773;-76
2023/07/14 06:54:18;;;;;;;1.10;1.00;;;;;;;;;;7304689;19;140683;-76
2023/07/14 06:56:45;;;;;;;1.65;1.00;;;;;;;;;;7303445;19;140491;-76
2023/07/14 06:59:12;;;;;;;0.95;0.95;;;;;;;;;;7303672;19;141983;-76
2023/07/14 07:01:39;;;;;;;1.88;1.10;;;;;;;;;;7303157;19;142322;-76
2023/07/14 07:04:06;;;;;;;1.00;1.00;;;;;;;;;;7303678;19;140746;-76
2023/07/14 07:06:33;;;;;;;0.95;0.95;;;;;;;;;;7303448;19;141020;-76
2023/07/14 07:09:00;;;;;;;0.98;0.90;;;;;;;;;;7303492;19;142648;-76
2023/07/14 07:11:30;;;;;;;0.90;0.90;;;;;;;;;;7303602;19;140554;-76
2023/07/14 07:13:57;;;;;;;1.38;1.00;;;;;;;;;;7302110;19;140862;-76
2023/07/14 07:16:24;;;;;;;1.00;0.90;;;;;;;;;;7303300;19;141096;-76
2023/07/14 07:18:51;;;;;;;0.95;0.85;;;;;;;;;;7303217;19;142366;-76
2023/07/14 07:21:18;;;;;;;1.30;1.10;;;;;;;;;;7303082;19;140601;-76
2023/07/14 07:23:45;;;;;;;0.90;0.90;;;;;;;;;;7303287;19;140881;-76
2023/07/14 07:26:12;;;;;;;1.00;1.00;;;;;;;;;;7300300;19;141657;-77
2023/07/14 07:28:40;;;;;;;0.90;0.90;;;;;;;;;;7303081;19;141803;-76
2023/07/14 07:31:09;;;;;;;1.30;1.20;;;;;;;;;;7301996;19;140546;-76
2023/07/14 07:33:41;;;;;;;1.50;1.20;;;;;;;;;;7303782;19;140714;-76
2023/07/14 07:36:14;;;;;;;1.13;1.02;;;;;;;;;;7302898;19;140623;-76
2023/07/14 07:38:43;;;;;;;1.10;1.00;;;;;;;;;;7302347;19;141168;-76
2023/07/14 07:41:11;;;;;;;1.13;1.00;;;;;;;;;;7302582;19;140411;-76
2023/07/14 07:43:38;;;;;;;1.75;1.30;;;;;;;;;;7302381;19;140705;-76
2023/07/14 07:46:05;;;;;;;3.15;1.10;;;;;;;;;;7300666;19;141028;-76
2023/07/14 07:48:33;;;;;;;1.30;1.00;;;;;;;;;;7302628;19;142765;-76
2023/07/14 07:51:01;;;;;;;1.23;1.13;;;;;;;;;;7302664;19;140368;-75
2023/07/14 07:53:28;;;;;;;1.17;1.08;;;;;;;;;;7302368;19;140490;-76
2023/07/14 07:55:56;;;;;;;2.05;1.20;;;;;;;;;;7302197;19;140505;-76
2023/07/14 07:58:24;;;;;;;1.20;1.10;;;;;;;;;;7301979;19;142370;-76
2023/07/14 08:00:55;;;;;;;1.40;1.30;;;;;;;;;;7301487;19;140864;-75
2023/07/14 08:03:22;;;;;;;1.80;1.38;;;;;;;;;;7302376;19;140376;-75
2023/07/14 08:05:50;;;;;;;1.45;1.20;;;;;;;;;;7300098;19;141159;-75
2023/07/14 08:08:18;;;;;;;1.50;1.40;;;;;;;;;;7301102;19;140699;-74
2023/07/14 08:10:48;;;;;;;1.27;1.17;;;;;;;;;;7301715;19;140637;-75
2023/07/14 08:13:15;;;;;;;1.40;1.30;;;;;;;;;;7301461;19;140425;-75
2023/07/14 08:15:42;;;;;;;1.50;1.40;;;;;;;;;;7300903;19;141754;-74
2023/07/14 08:18:09;;;;;;;2.35;1.33;;;;;;;;;;7301087;19;140882;-73
2023/07/14 08:20:40;;;;;;;2.58;1.50;;;;;;;;;;7301629;19;140679;-74
2023/07/14 08:23:10;;;;;;;1.98;1.48;;;;;;;;;;7301286;19;140796;-75
2023/07/14 08:25:37;;;;;;;2.28;1.58;;;;;;;;;;7301212;19;141758;-75
2023/07/14 08:28:05;;;;;;;1.30;1.20;;;;;;;;;;7300816;19;141892;-75
2023/07/14 08:30:32;;;;;;;2.63;1.58;;;;;;;;;;7299481;19;140712;-74
2023/07/14 08:32:59;;;;;;;2.17;1.42;;;;;;;;;;7301288;19;140589;-74
2023/07/14 08:35:26;;;;;;;1.33;1.23;;;;;;;;;;7300639;19;140934;-74
2023/07/14 08:37:53;;;;;;;2.15;1.40;;;;;;;;;;7300768;19;142604;-75
2023/07/14 08:40:25;;;;;;;3.03;1.67;;;;;;;;;;7300968;19;140808;-75
2023/07/14 08:43:05;;;;;;;2.38;1.48;;;;;;;;;;7300558;19;140648;-74
2023/07/14 08:45:41;;;;;;;1.40;1.30;;;;;;;;;;7300248;19;141095;-75
2023/07/14 08:48:27;;;;;;;1.60;1.33;;;;;;;;;;7300819;19;141818;-74
2023/07/14 08:50:56;;;;;;;3.08;1.42;;;;;;;;;;7301291;19;140700;-74
2023/07/14 08:53:26;;;;;;;1.70;1.10;;;;;;;;;;7301527;19;140701;-75
2023/07/14 08:55:58;;;;;;;2.03;1.43;;;;;;;;;;7300616;19;140777;-74
2023/07/14 08:58:27;;;;;;;1.45;1.30;;;;;;;;;;7300390;19;142013;-74
2023/07/14 09:01:02;;;;;;;1.30;1.20;;;;;;;;;;7300264;19;140587;-74
2023/07/14 09:03:29;;;;;;;1.35;1.20;;;;;;;;;;7299763;19;140576;-75
2023/07/14 09:06:03;;;;;;;1.80;1.30;;;;;;;;;;7300629;19;140489;-75
2023/07/14 09:08:31;;;;;;;1.33;1.10;;;;;;;;;;7300405;19;141305;-75
2023/07/14 09:11:13;;;;;;;1.85;1.35;;;;;;;;;;7300418;19;140543;-72
2023/07/14 09:13:43;;;;;;;1.30;1.20;;;;;;;;;;7299795;19;141746;-74
2023/07/14 09:16:11;;;;;;;2.27;1.37;;;;;;;;;;7298481;19;141656;-74
2023/07/14 09:18:46;;;;;;;1.77;1.30;;;;;;;;;;7300190;19;141201;-75
2023/07/14 09:21:19;;;;;;;1.88;1.40;;;;;;;;;;7300619;19;140649;-75
2023/07/14 09:24:10;;;;;;;1.73;1.30;;;;;;;;;;7299969;19;140441;-74
2023/07/14 09:26:39;;;;;;;1.60;1.20;;;;;;;;;;7299945;19;140699;-75
2023/07/14 09:29:12;;;;;;;1.38;1.27;;;;;;;;;;7303033;19;140833;-75
2023/07/14 09:31:42;;;;;;;1.50;1.23;;;;;;;;;;7298614;19;140636;-75
2023/07/14 09:34:25;;;;;;;1.25;1.10;;;;;;;;;;7299731;19;140726;-73
2023/07/14 09:36:53;;;;;;;1.83;1.30;;;;;;;;;;7299387;19;140478;-75
2023/07/14 09:39:26;;;;;;;2.22;1.27;;;;;;;;;;7299836;19;141191;-76
2023/07/14 09:41:56;;;;;;;1.35;1.10;;;;;;;;;;7299413;19;140681;-76
2023/07/14 09:44:25;;;;;;;1.63;1.23;;;;;;;;;;7299331;19;140569;-74
2023/07/14 09:46:53;;;;;;;1.58;1.35;;;;;;;;;;7298837;19;140974;-75
2023/07/14 09:49:26;;;;;;;1.55;1.20;;;;;;;;;;7303631;19;140756;-74
2023/07/14 09:52:08;;;;;;;1.20;1.10;;;;;;;;;;7306001;19;140527;-73
2023/07/14 09:54:40;;;;;;;2.78;1.20;;;;;;;;;;7306441;19;140493;-74
2023/07/14 09:57:10;;;;;;;1.35;1.25;;;;;;;;;;7306763;19;140691;-75
2023/07/14 09:59:53;;;;;;;1.58;1.20;;;;;;;;;;7305955;19;141802;-75
2023/07/14 10:02:26;;;;;;;1.50;1.27;;;;;;;;;;7305562;19;140867;-75
2023/07/14 10:04:55;;;;;;;1.55;1.40;;;;;;;;;;7305885;19;140695;-75
2023/07/14 10:07:25;;;;;;;1.40;1.30;;;;;;;;;;7306380;19;140909;-74
2023/07/14 10:10:00;;;;;;;1.20;1.10;;;;;;;;;;7305770;19;142058;-75
2023/07/14 10:12:40;;;;;;;1.58;1.17;;;;;;;;;;7305851;19;140413;-74
2023/07/14 10:15:39;;;;;;;1.30;1.20;;;;;;;;;;7306551;19;140537;-74
2023/07/14 10:18:12;;;;;;;1.27;1.10;;;;;;;;;;7302504;19;141108;-75
2023/07/14 10:20:40;;;;;;;1.73;1.30;;;;;;;;;;7306144;19;141002;-74
2023/07/14 10:23:14;;;;;;;1.88;1.55;;;;;;;;;;7306421;19;140748;-75
2023/07/14 10:25:46;;;;;;;1.65;1.27;;;;;;;;;;7304498;19;140811;-74
2023/07/14 10:28:16;;;;;;;0.90;0.90;;;;;;;;;;7305482;19;141241;-74
2023/07/14 10:30:51;;;;;;;1.97;1.20;;;;;;;;;;7305476;19;142378;-73
2023/07/14 10:33:27;;;;;;;1.17;1.08;;;;;;;;;;7306184;19;140539;-74
2023/07/14 10:35:57;;;;;;;1.50;1.10;;;;;;;;;;7305677;19;140349;-74
2023/07/14 10:38:32;;;;;;;1.30;1.20;;;;;;;;;;7306313;19;141552;-74
2023/07/14 10:41:01;;;;;;;2.20;1.23;;;;;;;;;;7305606;19;141497;-74
2023/07/14 10:43:43;;;;;;;1.50;1.10;;;;;;;;;;7305666;19;140458;-74
2023/07/14 10:46:14;;;;;;;3.50;1.80;;;;;;;;;;7304638;19;140622;-74
2023/07/14 10:48:41;;;;;;;;;;;;;;;;;;7305763;19;140458;-74
2023/07/14 10:51:24;;;;;;;1.42;1.10;;;;;;;;;;7302458;19;148470;-74
2023/07/14 10:54:26;;;;;;;2.25;1.30;;;;;;;;;;7305124;19;140425;-74
2023/07/14 10:57:00;;;;;;;1.45;1.20;;;;;;;;;;7301497;19;140918;-74
2023/07/14 10:59:27;;;;;;;1.95;1.48;;;;;;;;;;7303559;19;141039;-74
2023/07/14 11:02:01;;;;;;;1.77;1.25;;;;;;;;;;7302667;19;142790;-74
2023/07/14 11:04:33;;;;;;;1.25;1.10;;;;;;;;;;7304756;19;140282;-76
2023/07/14 11:07:02;;;;;;;1.58;1.02;;;;;;;;;;7305052;19;140729;-75
2023/07/14 11:09:30;;;;;;;1.40;1.10;;;;;;;;;;7303395;19;141101;-73
2023/07/14 11:12:06;;;;;;;1.58;1.20;;;;;;;;;;7303999;19;142843;-73
2023/07/14 11:14:53;;;;;;;1.10;0.98;;;;;;;;;;7304663;19;140711;-74
2023/07/14 11:17:20;;;;;;;1.98;1.20;;;;;;;;;;7303663;19;140566;-74
2023/07/14 11:19:54;;;;;;;1.45;1.20;;;;;;;;;;7303858;19;141381;-75
2023/07/14 11:22:33;;;;;;;1.25;1.15;;;;;;;;;;7304182;19;140853;-74
2023/07/14 11:25:06;;;;;;;1.15;1.05;;;;;;;;;;7304075;19;140415;-74
2023/07/14 11:27:35;;;;;;;1.35;1.25;;;;;;;;;;7303691;19;140407;-74
2023/07/14 11:30:22;;;;;;;1.30;1.10;;;;;;;;;;7302719;19;141439;-74
2023/07/14 11:33:03;;;;;;;1.30;1.15;;;;;;;;;;7300994;19;142884;-74
2023/07/14 11:35:44;;;;;;;1.10;1.00;;;;;;;;;;7303795;19;140863;-75
2023/07/14 11:38:20;;;;;;;1.73;1.27;;;;;;;;;;7303507;19;140909;-75
2023/07/14 11:40:48;;;;;;;1.55;1.20;;;;;;;;;;7301545;19;141480;-75
2023/07/14 11:43:22;;;;;;;1.42;1.10;;;;;;;;;;7302044;19;141916;-75
2023/07/14 11:45:58;;;;;;;1.48;1.15;;;;;;;;;;7303236;19;140418;-75
2023/07/14 11:48:38;;;;;;;1.38;1.10;;;;;;;;;;7302264;19;141311;-74
2023/07/14 11:51:07;;;;;;;1.20;1.10;;;;;;;;;;7302047;19;140983;-75
2023/07/14 11:53:37;;;;;;;2.00;1.20;;;;;;;;;;7303021;19;141203;-75
2023/07/14 11:56:18;;;;;;;1.20;1.00;;;;;;;;;;7303384;19;140792;-75
2023/07/14 11:58:45;;;;;;;1.52;1.10;;;;;;;;;;7301686;19;140666;-75
2023/07/14 12:01:17;;;;;;;1.98;1.20;;;;;;;;;;7302313;19;141940;-75
2023/07/14 12:03:52;;;;;;;2.20;1.65;;;;;;;;;;7301760;19;142104;-76
2023/07/14 12:06:19;;;;;;;1.23;1.02;;;;;;;;;;7301165;19;140538;-76
2023/07/14 12:09:02;;;;;;;1.27;1.00;;;;;;;;;;7302398;19;140721;-75
2023/07/14 12:11:30;;;;;;;1.70;1.38;;;;;;;;;;7298619;19;141114;-76
2023/07/14 12:14:26;;;;;;;1.60;1.40;;;;;;;;;;7302261;19;142131;-78
2023/07/14 12:16:54;;;;;;;2.65;1.30;;;;;;;;;;7300270;19;140648;-78
2023/07/14 12:19:49;;;;;;;1.33;1.20;;;;;;;;;;7300334;19;140737;-74
2023/07/14 12:22:35;;;;;;;2.72;1.45;;;;;;;;;;7302230;19;141275;-74
2023/07/14 12:25:09;;;;;;;1.45;1.35;;;;;;;;;;7301339;19;141376;-74
2023/07/14 12:27:37;;;;;;;1.73;1.20;;;;;;;;;;7301866;19;140595;-75
2023/07/14 12:30:19;;;;;;;2.60;1.67;;;;;;;;;;7301541;19;140563;-75
2023/07/14 12:32:46;;;;;;;2.00;1.40;;;;;;;;;;7300096;19;141276;-75
2023/07/14 12:35:15;;;;;;;2.03;1.40;;;;;;;;;;7301326;19;141827;-74
2023/07/14 12:37:45;;;;;;;2.55;1.60;;;;;;;;;;7301747;19;140639;-75
2023/07/14 12:40:14;;;;;;;2.03;1.50;;;;;;;;;;7301359;19;140696;-75
2023/07/14 12:42:45;;;;;;;1.95;1.23;;;;;;;;;;7301015;19;140616;-74
2023/07/14 12:45:13;;;;;;;1.83;1.50;;;;;;;;;;7301196;19;141816;-75
2023/07/14 12:47:43;;;;;;;1.77;1.20;;;;;;;;;;7298701;19;140760;-75
2023/07/14 12:50:15;;;;;;;2.17;1.58;;;;;;;;;;7301104;19;140970;-75
2023/07/14 12:52:44;;;;;;;1.73;1.40;;;;;;;;;;7301052;19;142236;-75
2023/07/14 12:55:13;;;;;;;1.55;1.38;;;;;;;;;;7300816;19;142703;-76
2023/07/14 12:57:40;;;;;;;1.98;1.35;;;;;;;;;;7299912;19;140917;-76
2023/07/14 13:00:27;;;;;;;1.50;1.30;;;;;;;;;;7301369;19;140615;-76
2023/07/14 13:02:54;;;;;;;2.25;1.45;;;;;;;;;;7299949;19;140831;-75
2023/07/14 13:05:24;;;;;;;4.25;2.00;;;;;;;;;;7299661;19;140798;-76
2023/07/14 13:07:53;;;;;;;3.07;1.47;;;;;;;;;;7300272;19;140944;-75
2023/07/14 13:10:25;;;;;;;3.45;1.63;;;;;;;;;;7300270;19;140863;-75
2023/07/14 13:12:54;;;;;;;1.70;1.52;;;;;;;;;;7299987;19;141859;-76
2023/07/14 13:15:26;;;;;;;1.70;1.27;;;;;;;;;;7299983;19;141862;-76
2023/07/14 13:17:53;;;;;;;1.40;1.30;;;;;;;;;;7300138;19;140580;-75
2023/07/14 13:20:27;;;;;;;2.55;1.60;;;;;;;;;;7301130;19;141511;-74
2023/07/14 13:23:18;;;;;;;1.45;1.30;;;;;;;;;;7300789;19;140848;-74
2023/07/14 13:26:03;;;;;;;1.73;1.30;;;;;;;;;;7307692;19;142615;-76
2023/07/14 13:28:33;;;;;;;1.63;1.40;;;;;;;;;;7307999;19;140640;-75
2023/07/14 13:31:02;;;;;;;1.90;1.20;;;;;;;;;;7308027;19;140712;-77
2023/07/14 13:33:29;;;;;;;1.58;1.20;;;;;;;;;;7306903;19;140507;-77
2023/07/14 13:36:03;;;;;;;2.38;1.60;;;;;;;;;;7306898;19;141344;-76
2023/07/14 13:38:30;;;;;;;1.67;1.33;;;;;;;;;;7306819;19;140507;-76
2023/07/14 13:41:08;;;;;;;2.45;1.10;;;;;;;;;;7307036;19;140605;-77
2023/07/14 13:43:36;;;;;;;1.58;1.40;;;;;;;;;;7306624;19;141612;-77
2023/07/14 13:46:10;;;;;;;3.00;1.80;;;;;;;;;;7306372;19;142397;-78
2023/07/14 13:48:38;;;;;;;2.28;1.60;;;;;;;;;;7306885;19;140770;-81
2023/07/14 13:51:31;;;;;;;1.63;1.40;;;;;;;;;;7306867;19;140528;-77
2023/07/14 13:53:58;;;;;;;2.33;1.75;;;;;;;;;;7306148;19;141495;-80
2023/07/14 13:56:26;;;;;;;1.30;1.20;;;;;;;;;;7306020;19;142258;-78
2023/07/14 13:58:54;;;;;;;1.40;1.30;;;;;;;;;;7306330;19;140367;-79
2023/07/14 14:01:23;;;;;;;2.33;1.50;;;;;;;;;;7306370;19;140556;-77
2023/07/14 14:03:52;;;;;;;2.08;1.60;;;;;;;;;;7305233;19;141110;-79
2023/07/14 14:06:22;;;;;;;2.17;1.60;;;;;;;;;;7306647;19;140752;-79
2023/07/14 14:08:49;;;;;;;1.38;1.25;;;;;;;;;;7307017;19;140386;-79
2023/07/14 14:11:16;;;;;;;2.25;1.58;;;;;;;;;;7304990;19;140559;-78
2023/07/14 14:13:43;;;;;;;1.90;1.60;;;;;;;;;;7306078;19;141031;-76
2023/07/14 14:16:14;;;;;;;1.70;1.20;;;;;;;;;;7305863;19;141982;-79
2023/07/14 14:18:43;;;;;;;1.48;1.38;;;;;;;;;;7304240;19;141074;-79
2023/07/14 14:21:11;;;;;;;1.25;1.13;;;;;;;;;;7306866;19;140544;-79
2023/07/14 14:23:41;;;;;;;1.60;1.42;;;;;;;;;;7305409;19;141015;-79
2023/07/14 14:26:12;;;;;;;2.13;1.50;;;;;;;;;;7304369;19;140898;-79
2023/07/14 14:28:40;;;;;;;1.50;1.40;;;;;;;;;;7306269;19;140520;-78
2023/07/14 14:31:09;;;;;;;1.75;1.30;;;;;;;;;;7305862;19;140692;-78
2023/07/14 14:33:36;;;;;;;1.67;1.42;;;;;;;;;;7303436;19;141831;-73
2023/07/14 14:36:03;;;;;;;1.40;1.30;;;;;;;;;;7303669;19;142186;-76
2023/07/14 14:38:31;;;;;;;2.47;1.60;;;;;;;;;;7305308;19;140522;-76
2023/07/14 14:41:03;;;;;;;1.90;1.40;;;;;;;;;;7305935;19;140634;-76
2023/07/14 14:43:31;;;;;;;1.60;1.20;;;;;;;;;;7305175;19;140496;-76
2023/07/14 14:45:59;;;;;;;2.05;1.50;;;;;;;;;;7304766;19;140842;-76
2023/07/14 14:48:27;;;;;;;1.35;1.20;;;;;;;;;;7304774;19;140674;-75
2023/07/14 14:51:08;;;;;;;1.48;1.10;;;;;;;;;;7304994;19;140407;-75